Monterrey Airport, Mexico

10:36 AM CST on November 27, 2014 (GMT -0600)
PrepaUDEM Fundadores | Change Station
CLOSE
Current Station
Personal Weather Station
Location: Escobedo, NUEVO LEON
Elevation: 1630 ft
Nearby Weather Stations

Elev 1630 ft 25.77 °N, 100.30 °W | Updated 1 minute ago

Clear
Clear
65.5 °F
Feels Like 65.5 °F
N
4.0
Wind Variable Wind from ESE
Gusts 6.0 mph

Today
High -- | Low -- °F
--% Chance of Precip.
Yesterday
High -- | Low -- °F
Precip. -- in
7:07 AM 5:49 PM
Waxing Crescent, 31% visible
Pressure 30.43 in
Visibility 15.0 miles
Clouds Clear
Dew Point 40 °F
Humidity 39%
Rainfall 0.00 in
Snow Depth Not available.
UV 3 out of 12
Pollen Not available.
Air Quality Not available.
Flu Activity Not available.
METAR MMMY 271543Z 33003KT 15SM SKC 17/04 A3043

More Conditions Fewer Conditions

Pressure 30.43 in
Visibility 15.0 miles
Clouds Clear
Dew Point 40 °F
Humidity 39%
Rainfall 0.00 in
Snow Depth Not available.
UV 3 out of 12
Pollen Not available.
Air Quality Not available.
Flu Activity Not available.
METAR MMMY 271543Z 33003KT 15SM SKC 17/04 A3043

More Conditions Fewer Conditions

10-Day Weather Forecast

Almanac

Astronomy

Nov. 27, 2014 Rise Set
Actual Time
Civil Twilight
Nautical Twilight
Astronomical Twilight
Moon
Length of Visible Light
Length of Day
Tomorrow will be .
, % of the Moon is Illuminated

Today's Extremes

Country Highs Country Lows

Community

WunderPhotos

Upload Photos

1,774,035 photos uploaded!

WunderBlogs® & News

Nearby

Air Quality

  Air Quality AQ Index Pollutant
Not available.

Snow Depth

Station Depth Elevation

Earthquake Activity

City Distance Mag. Time & Date
Minimum magnitude displayed is 2.5.

Coastal Water Temperatures

Place Temperature

Nearby Weather Stations